Time;durP1;ratioP1;P1;durP2;ratioP2;P2;SDS_P1;SDS_P2;PMS_P1;PMS_P2;Temp;Humidity;BMP_temperature;BMP_pressure;BME280_temperature;BME280_humidity;BME280_pressure;Samples;Min_cycle;Max_cycle;Signal;HPM_P1;HPM_P2
2022/09/16 00:00:23;;;;;;;;;;;;;;;;;;1040835;28;4251;-55
2022/09/16 00:01:14;;;;;;;;;;;;;;;;;;1048856;28;4444;-59
2022/09/16 00:01:48;;;;;;;;;;;;;;;;;;1050265;28;3136;-55
2022/09/16 00:02:18;;;;;;;;;;;;;;;;;;1047286;28;3927;-59
2022/09/16 00:02:52;;;;;;;;;;;;;;;;;;1044703;28;3204;-56
2022/09/16 00:03:22;;;;;;;;;;;;;;;;;;1041020;28;4083;-55
2022/09/16 00:03:54;;;;;;;;;;;;;;;;;;1043336;28;3268;-57
2022/09/16 00:04:24;;;;;;;;;;;;;;;;;;1041600;28;4227;-58
2022/09/16 00:04:55;;;;;;;;;;;;;;;;;;1041375;28;3792;-59
2022/09/16 00:05:25;;;;;;;;;;;;;;;;;;1039856;28;3789;-58
2022/09/16 00:05:55;;;;;;;;;;;;;;;;;;1043199;28;3786;-55
2022/09/16 00:06:27;;;;;;;;;;;;;;;;;;1042704;28;3934;-57
2022/09/16 00:06:57;;;;;;;;;;;;;;;;;;1040466;28;3541;-56
2022/09/16 00:07:28;;;;;;;;;;;;;;;;;;1041961;28;3886;-56
2022/09/16 00:07:59;;;;;;;;;;;;;;;;;;1042287;28;3259;-59
2022/09/16 00:08:30;;;;;;;;;;;;;;;;;;1040622;28;3938;-59
2022/09/16 00:09:01;;;;;;;;;;;;;;;;;;1041599;28;3561;-57
2022/09/16 00:09:38;;;;;;;;;;;;;;;;;;1041487;28;3972;-56
2022/09/16 00:10:08;;;;;;;;;;;;;;;;;;1041029;28;4054;-58
2022/09/16 00:10:39;;;;;;;;;;;;;;;;;;1042350;28;3749;-57
2022/09/16 00:11:10;;;;;;;;;;;;;;;;;;1040520;28;4078;-57
2022/09/16 00:11:40;;;;;;;;;;;;;;;;;;1041987;28;3241;-58
2022/09/16 00:12:10;;;;;;;;;;;;;;;;;;1039661;28;3819;-59
2022/09/16 00:12:41;;;;;;;;;;;;;;;;;;1047469;28;3287;-57
2022/09/16 00:13:11;;;;;;;;;;;;;;;;;;1044248;28;4094;-59
2022/09/16 00:13:42;;;;;;;;;;;;;;;;;;1046983;28;3202;-57
2022/09/16 00:14:12;;;;;;;;;;;;;;;;;;1044366;28;4020;-57
2022/09/16 00:14:42;;;;;;;;;;;;;;;;;;1043187;28;3686;-56
2022/09/16 00:15:13;;;;;;;;;;;;;;;;;;1035311;28;4122;-56
2022/09/16 00:15:44;;;;;;;;;;;;;;;;;;1036907;28;3770;-59
2022/09/16 00:16:21;;;;;;;;;;;;;;;;;;1036931;28;3918;-57
2022/09/16 00:16:51;;;;;;;;;;;;;;;;;;1038982;28;3170;-58
2022/09/16 00:17:22;;;;;;;;;;;;;;;;;;1040825;28;4060;-57
2022/09/16 00:17:52;;;;;;;;;;;;;;;;;;1044091;28;3184;-57
2022/09/16 00:18:23;;;;;;;;;;;;;;;;;;1042137;28;4251;-58
2022/09/16 00:18:55;;;;;;;;;;;;;;;;;;1045340;28;3940;-57
2022/09/16 00:19:25;;;;;;;;;;;;;;;;;;1042804;28;4054;-58
2022/09/16 00:19:56;;;;;;;;;;;;;;;;;;1043718;28;3553;-57
2022/09/16 00:20:27;;;;;;;;;;;;;;;;;;1042343;28;4040;-57
2022/09/16 00:20:57;;;;;;;;;;;;;;;;;;1042229;28;3752;-59
2022/09/16 00:21:28;;;;;;;;;;;;;;;;;;1039317;28;4826;-57
2022/09/16 00:21:58;;;;;;;;;;;;;;;;;;1042132;28;4034;-56
2022/09/16 00:22:29;;;;;;;;;;;;;;;;;;1041628;28;3842;-55
2022/09/16 00:22:59;;;;;;;;;;;;;;;;;;1040877;28;4223;-59
2022/09/16 00:23:29;;;;;;;;;;;;;;;;;;1038275;28;4050;-58
2022/09/16 00:24:09;;;;;;;;;;;;;;;;;;1039755;28;4126;-55
2022/09/16 00:24:39;;;;;;;;;;;;;;;;;;1039869;28;3590;-57
2022/09/16 00:25:10;;;;;;;;;;;;;;;;;;1040512;28;3916;-59
2022/09/16 00:25:40;;;;;;;;;;;;;;;;;;1039220;28;3542;-57
2022/09/16 00:26:10;;;;;;;;;;;;;;;;;;1041334;28;4041;-59
2022/09/16 00:26:41;;;;;;;;;;;;;;;;;;1041599;28;3337;-55
2022/09/16 00:27:12;;;;;;;;;;;;;;;;;;1040105;28;4085;-58
2022/09/16 00:27:42;;;;;;;;;;;;;;;;;;1041454;28;2940;-58
2022/09/16 00:28:12;;;;;;;;;;;;;;;;;;1036978;28;3884;-54
2022/09/16 00:28:42;;;;;;;;;;;;;;;;;;1036286;28;2926;-56
2022/09/16 00:29:13;;;;;;;;;;;;;;;;;;1045230;28;4001;-59
2022/09/16 00:29:43;;;;;;;;;;;;;;;;;;1046834;28;3258;-57
2022/09/16 00:30:14;;;;;;;;;;;;;;;;;;1048073;28;3872;-53
2022/09/16 00:30:44;;;;;;;;;;;;;;;;;;1048667;28;3750;-58
2022/09/16 00:31:14;;;;;;;;;;;;;;;;;;1040289;28;4136;-56
2022/09/16 00:31:45;;;;;;;;;;;;;;;;;;1042484;28;3952;-56
2022/09/16 00:32:15;;;;;;;;;;;;;;;;;;1039551;28;4167;-57
2022/09/16 00:32:45;;;;;;;;;;;;;;;;;;1040760;28;2897;-54
2022/09/16 00:33:16;;;;;;;;;;;;;;;;;;1043006;28;3895;-59
2022/09/16 00:33:46;;;;;;;;;;;;;;;;;;1043116;28;3278;-58
2022/09/16 00:34:16;;;;;;;;;;;;;;;;;;1040564;28;4096;-57
2022/09/16 00:34:46;;;;;;;;;;;;;;;;;;1040593;28;4189;-57
2022/09/16 00:35:17;;;;;;;;;;;;;;;;;;1041151;28;3884;-56
2022/09/16 00:35:47;;;;;;;;;;;;;;;;;;1042180;28;3441;-60
2022/09/16 00:36:18;;;;;;;;;;;;;;;;;;1040175;28;3874;-58
2022/09/16 00:36:48;;;;;;;;;;;;;;;;;;1041461;28;3225;-55
2022/09/16 00:37:19;;;;;;;;;;;;;;;;;;1042699;28;4064;-59
2022/09/16 00:37:49;;;;;;;;;;;;;;;;;;1042103;28;3164;-59
2022/09/16 00:38:19;;;;;;;;;;;;;;;;;;1039338;28;3851;-58
2022/09/16 00:38:51;;;;;;;;;;;;;;;;;;1041058;28;4084;-57
2022/09/16 00:39:21;;;;;;;;;;;;;;;;;;1040377;28;4042;-57
2022/09/16 00:39:52;;;;;;;;;;;;;;;;;;1041314;28;3204;-57
2022/09/16 00:40:22;;;;;;;;;;;;;;;;;;1041300;28;4072;-56
2022/09/16 00:40:52;;;;;;;;;;;;;;;;;;1042014;28;2930;-56
2022/09/16 00:41:24;;;;;;;;;;;;;;;;;;1043128;28;4184;-59
2022/09/16 00:42:09;;;;;;;;;;;;;;;;;;1040486;28;3212;-58
2022/09/16 00:42:46;;;;;;;;;;;;;;;;;;1047901;28;3854;-58
2022/09/16 00:43:17;;;;;;;;;;;;;;;;;;1046123;28;4175;-57
2022/09/16 00:43:53;;;;;;;;;;;;;;;;;;1047785;28;3441;-57
2022/09/16 00:44:42;;;;;;;;;;;;;;;;;;1046326;28;4065;-58
2022/09/16 00:45:20;;;;;;;;;;;;;;;;;;1044589;28;4357;-56
2022/09/16 00:45:55;;;;;;;;;;;;;;;;;;1046498;28;3826;-58
2022/09/16 00:46:29;;;;;;;;;;;;;;;;;;1046356;28;4084;-57
2022/09/16 00:46:59;;;;;;;;;;;;;;;;;;1047607;28;4104;-57
2022/09/16 00:47:32;;;;;;;;;;;;;;;;;;1047310;28;3956;-54
2022/09/16 00:48:06;;;;;;;;;;;;;;;;;;1044294;28;4282;-57
2022/09/16 00:48:36;;;;;;;;;;;;;;;;;;1045149;28;3973;-56
2022/09/16 00:49:13;;;;;;;;;;;;;;;;;;1043390;28;4440;-57
2022/09/16 00:49:44;;;;;;;;;;;;;;;;;;1042877;28;3392;-54
2022/09/16 00:50:17;;;;;;;;;;;;;;;;;;1041566;28;4009;-58
2022/09/16 00:50:50;;;;;;;;;;;;;;;;;;1043881;28;3481;-55
2022/09/16 00:51:20;;;;;;;;;;;;;;;;;;1047603;28;3879;-58
2022/09/16 00:51:53;;;;;;;;;;;;;;;;;;1047586;28;3237;-56
2022/09/16 00:52:24;;;;;;;;;;;;;;;;;;1042543;28;3867;-56
2022/09/16 00:52:55;;;;;;;;;;;;;;;;;;1040249;28;3830;-58
2022/09/16 00:53:27;;;;;;;;;;;;;;;;;;1041656;28;4135;-58
2022/09/16 00:54:01;;;;;;;;;;;;;;;;;;1045207;28;3739;-58
2022/09/16 00:54:34;;;;;;;;;;;;;;;;;;1045576;28;3926;-57
2022/09/16 00:55:06;;;;;;;;;;;;;;;;;;1047030;28;4215;-57
2022/09/16 00:55:37;;;;;;;;;;;;;;;;;;1046586;28;3926;-55
2022/09/16 00:56:08;;;;;;;;;;;;;;;;;;1047074;28;4062;-54
2022/09/16 00:56:41;;;;;;;;;;;;;;;;;;1046523;28;3687;-59
2022/09/16 00:57:12;;;;;;;;;;;;;;;;;;1044535;28;4062;-55
2022/09/16 00:57:43;;;;;;;;;;;;;;;;;;1046061;28;3322;-56
2022/09/16 00:58:18;;;;;;;;;;;;;;;;;;1044416;28;3808;-55
2022/09/16 00:58:52;;;;;;;;;;;;;;;;;;1044179;28;3700;-59
2022/09/16 00:59:27;;;;;;;;;;;;;;;;;;1047543;28;4092;-58
2022/09/16 00:59:58;;;;;;;;;;;;;;;;;;1047671;28;2925;-57
2022/09/16 01:00:28;;;;;;;;;;;;;;;;;;1042889;28;4688;-57
2022/09/16 01:00:59;;;;;;;;;;;;;;;;;;1047479;28;3564;-59
2022/09/16 01:01:30;;;;;;;;;;;;;;;;;;1046719;28;4061;-59
2022/09/16 01:02:04;;;;;;;;;;;;;;;;;;1048427;28;3521;-58
2022/09/16 01:02:34;;;;;;;;;;;;;;;;;;1045625;28;5252;-56
2022/09/16 01:03:05;;;;;;;;;;;;;;;;;;1046142;28;4412;-58
2022/09/16 01:03:43;;;;;;;;;;;;;;;;;;1047188;28;3027;-54
2022/09/16 01:04:17;;;;;;;;;;;;;;;;;;1047631;28;4068;-58
2022/09/16 01:04:50;;;;;;;;;;;;;;;;;;1046468;28;3370;-56
2022/09/16 01:05:22;;;;;;;;;;;;;;;;;;1045606;28;4125;-58
2022/09/16 01:05:52;;;;;;;;;;;;;;;;;;1048084;28;3302;-58
2022/09/16 01:06:23;;;;;;;;;;;;;;;;;;1043014;28;4074;-57
2022/09/16 01:06:53;;;;;;;;;;;;;;;;;;1043909;28;4075;-59
2022/09/16 01:07:39;;;;;;;;;;;;;;;;;;1043909;28;3867;-58
2022/09/16 01:08:09;;;;;;;;;;;;;;;;;;1045263;28;4240;-57
2022/09/16 01:08:42;;;;;;;;;;;;;;;;;;1048090;28;3076;-57
2022/09/16 01:09:12;;;;;;;;;;;;;;;;;;1046659;28;3932;-58
2022/09/16 01:09:43;;;;;;;;;;;;;;;;;;1048212;28;3269;-60
2022/09/16 01:10:15;;;;;;;;;;;;;;;;;;1044523;28;4011;-59
2022/09/16 01:10:45;;;;;;;;;;;;;;;;;;1043683;28;3727;-58
2022/09/16 01:11:16;;;;;;;;;;;;;;;;;;1046345;28;3924;-57
2022/09/16 01:11:46;;;;;;;;;;;;;;;;;;1047158;28;3287;-59
2022/09/16 01:12:16;;;;;;;;;;;;;;;;;;1043141;28;4310;-59
2022/09/16 01:12:57;;;;;;;;;;;;;;;;;;1042407;28;3746;-58
2022/09/16 01:13:27;;;;;;;;;;;;;;;;;;1043630;28;3936;-58
2022/09/16 01:14:51;;;;;;;;;;;;;;;;;;1045327;28;4683;-58
2022/09/16 01:14:52;;;;;;;;;;;;;;;;;;1046918;28;3819;-56
2022/09/16 01:15:25;;;;;;;;;;;;;;;;;;1046456;28;4059;-57
2022/09/16 01:16:01;;;;;;;;;;;;;;;;;;1046940;28;3292;-56
2022/09/16 01:16:34;;;;;;;;;;;;;;;;;;1046038;28;4008;-57
2022/09/16 01:17:14;;;;;;;;;;;;;;;;;;1047066;28;3948;-56
2022/09/16 01:17:50;;;;;;;;;;;;;;;;;;1047659;28;3189;-58
2022/09/16 01:18:39;;;;;;;;;;;;;;;;;;1046005;28;4883;-56
2022/09/16 01:19:09;;;;;;;;;;;;;;;;;;1045475;28;4206;-57
2022/09/16 01:19:48;;;;;;;;;;;;;;;;;;1048697;28;3415;-57
2022/09/16 01:20:34;;;;;;;;;;;;;;;;;;1046514;28;4095;-58
2022/09/16 01:21:07;;;;;;;;;;;;;;;;;;1045855;28;3909;-56
2022/09/16 01:22:01;;;;;;;;;;;;;;;;;;1047323;28;2661;-58
2022/09/16 01:22:43;;;;;;;;;;;;;;;;;;1045765;28;8531;-57
2022/09/16 01:23:32;;;;;;;;;;;;;;;;;;1048206;28;4076;-58
2022/09/16 01:24:21;;;;;;;;;;;;;;;;;;1047047;28;4251;-57
2022/09/16 01:25:10;;;;;;;;;;;;;;;;;;1045038;28;3503;-59
2022/09/16 01:25:59;;;;;;;;;;;;;;;;;;1043350;28;4016;-57
2022/09/16 01:26:30;;;;;;;;;;;;;;;;;;1041477;28;4062;-57
2022/09/16 01:27:06;;;;;;;;;;;;;;;;;;1047710;28;3372;-58
2022/09/16 01:27:55;;;;;;;;;;;;;;;;;;1045959;28;3713;-58
2022/09/16 01:28:37;;;;;;;;;;;;;;;;;;1045626;28;3916;-58
2022/09/16 01:29:10;;;;;;;;;;;;;;;;;;1046943;28;4106;-59
2022/09/16 01:29:46;;;;;;;;;;;;;;;;;;1046534;28;2577;-56
2022/09/16 01:30:36;;;;;;;;;;;;;;;;;;1044665;28;4207;-57
2022/09/16 01:31:12;;;;;;;;;;;;;;;;;;1047048;28;4097;-58
2022/09/16 01:31:58;;;;;;;;;;;;;;;;;;1047773;28;3148;-57
2022/09/16 01:32:37;;;;;;;;;;;;;;;;;;1043656;28;3981;-57
2022/09/16 01:33:23;;;;;;;;;;;;;;;;;;1043960;28;4070;-57
2022/09/16 01:33:58;;;;;;;;;;;;;;;;;;1042777;28;3825;-56
2022/09/16 01:34:47;;;;;;;;;;;;;;;;;;1046045;28;3898;-57
2022/09/16 01:35:21;;;;;;;;;;;;;;;;;;1048753;28;4069;-58
2022/09/16 01:36:00;;;;;;;;;;;;;;;;;;1047253;28;3158;-59
2022/09/16 01:36:30;;;;;;;;;;;;;;;;;;1045790;28;3950;-57
2022/09/16 01:37:05;;;;;;;;;;;;;;;;;;1046301;28;3654;-56
2022/09/16 01:37:54;;;;;;;;;;;;;;;;;;1047284;28;3901;-59
2022/09/16 01:38:37;;;;;;;;;;;;;;;;;;1047584;28;4139;-56
2022/09/16 01:39:14;;;;;;;;;;;;;;;;;;1045816;28;4056;-58
2022/09/16 01:39:48;;;;;;;;;;;;;;;;;;1047034;28;4506;-56
2022/09/16 01:40:32;;;;;;;;;;;;;;;;;;1046422;28;4013;-57
2022/09/16 01:41:08;;;;;;;;;;;;;;;;;;1047264;28;3958;-57
2022/09/16 01:41:44;;;;;;;;;;;;;;;;;;1047971;28;2145;-58
2022/09/16 01:42:31;;;;;;;;;;;;;;;;;;1045203;28;4228;-57
2022/09/16 01:43:35;;;;;;;;;;;;;;;;;;1046938;28;3958;-58
2022/09/16 01:44:13;;;;;;;;;;;;;;;;;;1043131;28;4259;-56
2022/09/16 01:44:54;;;;;;;;;;;;;;;;;;1049184;28;3002;-58
2022/09/16 01:45:40;;;;;;;;;;;;;;;;;;1047002;28;3957;-58
2022/09/16 01:46:29;;;;;;;;;;;;;;;;;;1045832;28;4278;-58
2022/09/16 01:47:05;;;;;;;;;;;;;;;;;;1046470;28;3967;-57
2022/09/16 01:47:51;;;;;;;;;;;;;;;;;;1046561;28;3664;-57
2022/09/16 01:48:23;;;;;;;;;;;;;;;;;;1045789;28;3914;-56
2022/09/16 01:48:59;;;;;;;;;;;;;;;;;;1048924;28;3213;-57
2022/09/16 01:49:38;;;;;;;;;;;;;;;;;;1046723;28;3840;-57
2022/09/16 01:50:18;;;;;;;;;;;;;;;;;;1046292;28;3915;-57
2022/09/16 01:50:53;;;;;;;;;;;;;;;;;;1047956;28;3236;-55
2022/09/16 01:51:31;;;;;;;;;;;;;;;;;;1048767;28;4163;-52
2022/09/16 01:52:01;;;;;;;;;;;;;;;;;;1047930;28;3310;-58
2022/09/16 01:52:40;;;;;;;;;;;;;;;;;;1045952;28;4069;-56
2022/09/16 01:53:29;;;;;;;;;;;;;;;;;;1047058;28;3891;-59
2022/09/16 01:54:32;;;;;;;;;;;;;;;;;;1047941;28;3887;-53
2022/09/16 01:55:05;;;;;;;;;;;;;;;;;;1037020;28;4079;-55
2022/09/16 01:55:38;;;;;;;;;;;;;;;;;;1038041;28;4595;-60
2022/09/16 01:56:21;;;;;;;;;;;;;;;;;;1042836;28;4137;-59
2022/09/16 01:56:57;;;;;;;;;;;;;;;;;;1041250;28;3728;-58
2022/09/16 01:57:46;;;;;;;;;;;;;;;;;;1040209;28;4059;-57
2022/09/16 01:58:21;;;;;;;;;;;;;;;;;;1042721;28;5233;-59
2022/09/16 01:59:04;;;;;;;;;;;;;;;;;;1046222;28;3220;-56
2022/09/16 02:00:05;;;;;;;;;;;;;;;;;;1047635;28;3989;-57
2022/09/16 02:00:36;;;;;;;;;;;;;;;;;;1029182;28;3811;-57
2022/09/16 02:01:09;;;;;;;;;;;;;;;;;;1044349;28;3977;-59
2022/09/16 02:01:46;;;;;;;;;;;;;;;;;;1043016;28;3403;-56
2022/09/16 02:02:26;;;;;;;;;;;;;;;;;;1045461;28;4101;-58
2022/09/16 02:03:02;;;;;;;;;;;;;;;;;;1047966;28;2680;-58
2022/09/16 02:03:34;;;;;;;;;;;;;;;;;;1046302;28;3699;-57
2022/09/16 02:04:07;;;;;;;;;;;;;;;;;;1047176;28;4106;-57
2022/09/16 02:04:41;;;;;;;;;;;;;;;;;;1048184;28;4343;-57
2022/09/16 02:05:32;;;;;;;;;;;;;;;;;;1047493;28;3845;-58
2022/09/16 02:06:07;;;;;;;;;;;;;;;;;;1046881;28;3927;-57
2022/09/16 02:06:39;;;;;;;;;;;;;;;;;;1044326;28;3048;-56
2022/09/16 02:07:10;;;;;;;;;;;;;;;;;;1043055;28;4433;-58
2022/09/16 02:07:44;;;;;;;;;;;;;;;;;;1045121;28;2587;-58
2022/09/16 02:08:18;;;;;;;;;;;;;;;;;;1046066;28;3893;-57
2022/09/16 02:08:53;;;;;;;;;;;;;;;;;;1047505;28;3296;-57
2022/09/16 02:09:30;;;;;;;;;;;;;;;;;;1046960;28;4092;-56
2022/09/16 02:10:07;;;;;;;;;;;;;;;;;;1048162;28;3724;-58
2022/09/16 02:10:43;;;;;;;;;;;;;;;;;;1046277;28;4236;-56
2022/09/16 02:11:15;;;;;;;;;;;;;;;;;;1046038;28;3904;-56
2022/09/16 02:11:47;;;;;;;;;;;;;;;;;;1044551;28;3881;-56
2022/09/16 02:12:20;;;;;;;;;;;;;;;;;;1042896;28;3931;-57
2022/09/16 02:12:52;;;;;;;;;;;;;;;;;;1044544;28;3143;-58
2022/09/16 02:13:26;;;;;;;;;;;;;;;;;;1043034;28;4150;-57
2022/09/16 02:14:03;;;;;;;;;;;;;;;;;;1047863;28;3119;-57
2022/09/16 02:14:37;;;;;;;;;;;;;;;;;;1046084;28;3959;-59
2022/09/16 02:15:11;;;;;;;;;;;;;;;;;;1043301;28;4105;-57
2022/09/16 02:15:42;;;;;;;;;;;;;;;;;;1042491;28;3543;-55
2022/09/16 02:16:15;;;;;;;;;;;;;;;;;;1042756;28;4449;-57
2022/09/16 02:16:49;;;;;;;;;;;;;;;;;;1045669;28;2753;-57
2022/09/16 02:17:21;;;;;;;;;;;;;;;;;;1046330;28;4289;-56
2022/09/16 02:17:58;;;;;;;;;;;;;;;;;;1043167;28;3029;-57
2022/09/16 02:18:31;;;;;;;;;;;;;;;;;;1047150;28;4112;-53
2022/09/16 02:19:05;;;;;;;;;;;;;;;;;;1045892;28;3831;-58
2022/09/16 02:19:38;;;;;;;;;;;;;;;;;;1046624;28;3726;-56
2022/09/16 02:20:11;;;;;;;;;;;;;;;;;;1050324;28;3909;-59
2022/09/16 02:20:43;;;;;;;;;;;;;;;;;;1046973;28;3100;-57
2022/09/16 02:21:14;;;;;;;;;;;;;;;;;;1044471;28;3917;-55
2022/09/16 02:21:45;;;;;;;;;;;;;;;;;;1045876;28;3925;-58
2022/09/16 02:22:24;;;;;;;;;;;;;;;;;;1046643;28;4162;-58
2022/09/16 02:22:58;;;;;;;;;;;;;;;;;;1047888;28;2747;-58
2022/09/16 02:23:32;;;;;;;;;;;;;;;;;;1047001;28;4060;-56
2022/09/16 02:24:04;;;;;;;;;;;;;;;;;;1048099;28;3883;-57
2022/09/16 02:24:35;;;;;;;;;;;;;;;;;;1048433;28;3543;-59
2022/09/16 02:25:07;;;;;;;;;;;;;;;;;;1049253;28;4225;-57
2022/09/16 02:25:38;;;;;;;;;;;;;;;;;;1049504;28;3830;-58
2022/09/16 02:26:10;;;;;;;;;;;;;;;;;;1049841;28;3889;-59
2022/09/16 02:26:43;;;;;;;;;;;;;;;;;;1046948;28;3999;-55
2022/09/16 02:27:17;;;;;;;;;;;;;;;;;;1048634;28;3911;-58
2022/09/16 02:27:48;;;;;;;;;;;;;;;;;;1047521;28;2375;-54
2022/09/16 02:28:20;;;;;;;;;;;;;;;;;;1046564;28;4036;-59
2022/09/16 02:28:51;;;;;;;;;;;;;;;;;;1042013;28;4649;-57
2022/09/16 02:29:24;;;;;;;;;;;;;;;;;;1044321;28;3790;-54
2022/09/16 02:29:56;;;;;;;;;;;;;;;;;;1042954;28;3673;-57
2022/09/16 02:30:27;;;;;;;;;;;;;;;;;;1042209;28;4096;-52
2022/09/16 02:30:58;;;;;;;;;;;;;;;;;;1046714;28;3242;-54
2022/09/16 02:31:31;;;;;;;;;;;;;;;;;;1046943;28;4039;-54
2022/09/16 02:32:02;;;;;;;;;;;;;;;;;;1048280;28;3246;-57
2022/09/16 02:32:35;;;;;;;;;;;;;;;;;;1045564;28;6224;-58
2022/09/16 02:33:07;;;;;;;;;;;;;;;;;;1047130;28;3917;-58
2022/09/16 02:33:46;;;;;;;;;;;;;;;;;;1040987;28;4016;-56
2022/09/16 02:34:23;;;;;;;;;;;;;;;;;;1042723;28;4253;-58
2022/09/16 02:34:55;;;;;;;;;;;;;;;;;;1042799;28;3781;-58
2022/09/16 02:35:26;;;;;;;;;;;;;;;;;;1044824;28;3862;-56
2022/09/16 02:35:57;;;;;;;;;;;;;;;;;;1046140;28;3118;-58
2022/09/16 02:36:28;;;;;;;;;;;;;;;;;;1047125;28;3962;-54
2022/09/16 02:37:03;;;;;;;;;;;;;;;;;;1046334;28;3704;-56
2022/09/16 02:37:36;;;;;;;;;;;;;;;;;;1047797;28;4330;-59
2022/09/16 02:38:10;;;;;;;;;;;;;;;;;;1046371;28;3902;-58
2022/09/16 02:38:44;;;;;;;;;;;;;;;;;;1047159;28;3208;-58
2022/09/16 02:39:17;;;;;;;;;;;;;;;;;;1047295;28;4411;-55
2022/09/16 02:39:53;;;;;;;;;;;;;;;;;;1047088;28;3137;-57
2022/09/16 02:40:30;;;;;;;;;;;;;;;;;;1044895;28;4089;-57
2022/09/16 02:41:01;;;;;;;;;;;;;;;;;;1047137;28;3818;-57
2022/09/16 02:41:31;;;;;;;;;;;;;;;;;;1047647;28;4057;-55
2022/09/16 02:42:02;;;;;;;;;;;;;;;;;;1047286;28;3103;-57
2022/09/16 02:42:38;;;;;;;;;;;;;;;;;;1045696;28;3986;-58
2022/09/16 02:43:09;;;;;;;;;;;;;;;;;;1046603;28;3962;-55
2022/09/16 02:43:40;;;;;;;;;;;;;;;;;;1042026;28;3674;-56
2022/09/16 02:44:10;;;;;;;;;;;;;;;;;;1040042;28;4068;-57
2022/09/16 02:44:41;;;;;;;;;;;;;;;;;;1040881;28;3556;-57
2022/09/16 02:45:11;;;;;;;;;;;;;;;;;;1042132;28;3919;-58
2022/09/16 02:45:41;;;;;;;;;;;;;;;;;;1045478;28;3747;-58
2022/09/16 02:46:15;;;;;;;;;;;;;;;;;;1042823;28;4195;-57
2022/09/16 02:46:48;;;;;;;;;;;;;;;;;;1043478;28;3031;-59
2022/09/16 02:47:30;;;;;;;;;;;;;;;;;;1043620;28;3938;-56
2022/09/16 02:48:02;;;;;;;;;;;;;;;;;;1044524;28;3707;-58
2022/09/16 02:48:44;;;;;;;;;;;;;;;;;;1047382;28;3705;-54
2022/09/16 02:49:44;;;;;;;;;;;;;;;;;;1044708;28;4010;-57
2022/09/16 02:50:14;;;;;;;;;;;;;;;;;;1047423;28;5033;-57
2022/09/16 02:50:49;;;;;;;;;;;;;;;;;;1048124;28;3022;-56
2022/09/16 02:51:28;;;;;;;;;;;;;;;;;;1046745;28;3992;-57
2022/09/16 02:52:03;;;;;;;;;;;;;;;;;;1046179;28;5282;-57
2022/09/16 02:52:36;;;;;;;;;;;;;;;;;;1041890;28;3846;-54
2022/09/16 02:53:17;;;;;;;;;;;;;;;;;;1038755;28;4166;-58
2022/09/16 02:53:51;;;;;;;;;;;;;;;;;;1035430;28;3969;-57
2022/09/16 02:54:44;;;;;;;;;;;;;;;;;;1036908;28;4084;-57
2022/09/16 02:55:23;;;;;;;;;;;;;;;;;;1042312;28;3942;-57
2022/09/16 02:55:56;;;;;;;;;;;;;;;;;;1042177;28;3954;-56
2022/09/16 02:56:31;;;;;;;;;;;;;;;;;;1041332;28;3948;-59
2022/09/16 02:57:01;;;;;;;;;;;;;;;;;;1040548;28;2990;-56
2022/09/16 02:57:32;;;;;;;;;;;;;;;;;;1038073;28;3755;-53
2022/09/16 02:58:04;;;;;;;;;;;;;;;;;;1043390;28;3810;-54
2022/09/16 02:58:34;;;;;;;;;;;;;;;;;;1044140;28;3156;-57
2022/09/16 02:59:05;;;;;;;;;;;;;;;;;;1047541;28;3890;-59
2022/09/16 02:59:36;;;;;;;;;;;;;;;;;;1045983;28;2974;-56
2022/09/16 03:00:07;;;;;;;;;;;;;;;;;;1046850;28;3878;-56
2022/09/16 03:00:42;;;;;;;;;;;;;;;;;;1048377;28;3803;-57
2022/09/16 03:01:12;;;;;;;;;;;;;;;;;;1042976;28;4077;-58
2022/09/16 03:01:45;;;;;;;;;;;;;;;;;;1043313;28;3774;-59
2022/09/16 03:02:15;;;;;;;;;;;;;;;;;;1044178;28;4374;-57
2022/09/16 03:02:45;;;;;;;;;;;;;;;;;;1043883;28;3749;-58
2022/09/16 03:03:16;;;;;;;;;;;;;;;;;;1047695;28;3892;-58
2022/09/16 03:03:46;;;;;;;;;;;;;;;;;;1048976;28;3370;-54
2022/09/16 03:04:18;;;;;;;;;;;;;;;;;;1047975;28;3918;-56
2022/09/16 03:04:48;;;;;;;;;;;;;;;;;;1048225;28;4078;-59
2022/09/16 03:05:18;;;;;;;;;;;;;;;;;;1047266;28;4160;-57
2022/09/16 03:06:07;;;;;;;;;;;;;;;;;;1046180;28;3578;-57
2022/09/16 03:06:38;;;;;;;;;;;;;;;;;;1049248;28;3787;-56
2022/09/16 03:07:09;;;;;;;;;;;;;;;;;;1047685;28;4259;-59
2022/09/16 03:07:40;;;;;;;;;;;;;;;;;;1046899;28;3690;-55
2022/09/16 03:08:10;;;;;;;;;;;;;;;;;;1048346;28;4065;-58
2022/09/16 03:08:41;;;;;;;;;;;;;;;;;;1047826;28;3285;-56
2022/09/16 03:09:12;;;;;;;;;;;;;;;;;;1048517;28;4031;-57
2022/09/16 03:09:44;;;;;;;;;;;;;;;;;;1046033;28;3782;-58
2022/09/16 03:10:14;;;;;;;;;;;;;;;;;;1047817;28;3878;-57
2022/09/16 03:10:45;;;;;;;;;;;;;;;;;;1048069;28;3228;-59
2022/09/16 03:11:24;;;;;;;;;;;;;;;;;;1047978;28;3940;-57
2022/09/16 03:12:13;;;;;;;;;;;;;;;;;;1047915;28;3405;-59
2022/09/16 03:12:49;;;;;;;;;;;;;;;;;;1047663;28;3800;-57
2022/09/16 03:13:25;;;;;;;;;;;;;;;;;;1046280;28;3925;-58
2022/09/16 03:14:28;;;;;;;;;;;;;;;;;;1047065;28;3763;-57
2022/09/16 03:15:05;;;;;;;;;;;;;;;;;;1034723;28;3950;-56
2022/09/16 03:15:45;;;;;;;;;;;;;;;;;;1034801;28;3976;-58
2022/09/16 03:16:34;;;;;;;;;;;;;;;;;;1046231;28;3918;-57
2022/09/16 03:17:23;;;;;;;;;;;;;;;;;;1048006;28;3892;-57
2022/09/16 03:18:07;;;;;;;;;;;;;;;;;;1042445;28;3688;-57
2022/09/16 03:18:46;;;;;;;;;;;;;;;;;;1043629;28;3957;-57
2022/09/16 03:19:42;;;;;;;;;;;;;;;;;;1041087;28;3966;-59
2022/09/16 03:20:12;;;;;;;;;;;;;;;;;;1045058;28;3840;-58
2022/09/16 03:21:01;;;;;;;;;;;;;;;;;;1041827;28;3827;-57
2022/09/16 03:21:37;;;;;;;;;;;;;;;;;;1046107;28;6802;-55
2022/09/16 03:22:14;;;;;;;;;;;;;;;;;;1047194;28;4167;-57
2022/09/16 03:22:58;;;;;;;;;;;;;;;;;;1047245;28;3414;-57
2022/09/16 03:23:45;;;;;;;;;;;;;;;;;;1047320;28;4177;-58
2022/09/16 03:24:34;;;;;;;;;;;;;;;;;;1047602;28;3973;-59
2022/09/16 03:25:23;;;;;;;;;;;;;;;;;;1048213;28;4065;-57
2022/09/16 03:25:56;;;;;;;;;;;;;;;;;;1048423;28;3115;-56
2022/09/16 03:26:35;;;;;;;;;;;;;;;;;;1047866;28;4079;-58
2022/09/16 03:27:17;;;;;;;;;;;;;;;;;;1046527;28;3835;-59
2022/09/16 03:28:09;;;;;;;;;;;;;;;;;;1048312;28;3394;-59
2022/09/16 03:28:39;;;;;;;;;;;;;;;;;;1047315;28;3662;-58
2022/09/16 03:29:28;;;;;;;;;;;;;;;;;;1047598;28;3926;-56
2022/09/16 03:30:03;;;;;;;;;;;;;;;;;;1047079;28;3847;-59
2022/09/16 03:30:37;;;;;;;;;;;;;;;;;;1046292;28;3677;-58
2022/09/16 03:31:09;;;;;;;;;;;;;;;;;;1047013;28;4159;-54
2022/09/16 03:31:46;;;;;;;;;;;;;;;;;;1041871;28;2828;-56
2022/09/16 03:32:21;;;;;;;;;;;;;;;;;;1044605;28;4110;-59
2022/09/16 03:32:53;;;;;;;;;;;;;;;;;;1044636;28;3224;-58
2022/09/16 03:33:42;;;;;;;;;;;;;;;;;;1044486;28;3904;-55
2022/09/16 03:34:22;;;;;;;;;;;;;;;;;;1048792;28;4055;-58
2022/09/16 03:34:55;;;;;;;;;;;;;;;;;;1046565;28;3363;-55
2022/09/16 03:35:32;;;;;;;;;;;;;;;;;;1049565;28;3948;-56
2022/09/16 03:36:04;;;;;;;;;;;;;;;;;;1047961;28;3949;-55
2022/09/16 03:36:44;;;;;;;;;;;;;;;;;;1047723;28;2713;-58
2022/09/16 03:37:15;;;;;;;;;;;;;;;;;;1047288;28;4243;-57
2022/09/16 03:37:46;;;;;;;;;;;;;;;;;;1047220;28;3816;-53
2022/09/16 03:38:17;;;;;;;;;;;;;;;;;;1047070;28;3937;-58
2022/09/16 03:38:48;;;;;;;;;;;;;;;;;;1047396;28;3744;-54
2022/09/16 03:39:21;;;;;;;;;;;;;;;;;;1047946;28;4071;-57
2022/09/16 03:39:53;;;;;;;;;;;;;;;;;;1047875;28;2913;-57
2022/09/16 03:40:25;;;;;;;;;;;;;;;;;;1047375;28;4042;-58
2022/09/16 03:40:55;;;;;;;;;;;;;;;;;;1047113;28;3678;-58
2022/09/16 03:41:27;;;;;;;;;;;;;;;;;;1051476;28;4026;-56
2022/09/16 03:42:01;;;;;;;;;;;;;;;;;;1051537;28;3249;-58
2022/09/16 03:42:38;;;;;;;;;;;;;;;;;;1049752;28;3855;-56
2022/09/16 03:43:16;;;;;;;;;;;;;;;;;;1046904;28;4106;-57
2022/09/16 03:43:53;;;;;;;;;;;;;;;;;;1044690;28;3379;-54
2022/09/16 03:44:29;;;;;;;;;;;;;;;;;;1044678;28;3893;-58
2022/09/16 03:45:00;;;;;;;;;;;;;;;;;;1044426;28;3248;-57
2022/09/16 03:45:30;;;;;;;;;;;;;;;;;;1041378;28;3977;-55
2022/09/16 03:46:00;;;;;;;;;;;;;;;;;;1043011;28;3713;-56
2022/09/16 03:46:31;;;;;;;;;;;;;;;;;;1044313;28;4109;-55
2022/09/16 03:47:02;;;;;;;;;;;;;;;;;;1044400;28;3234;-58
2022/09/16 03:47:39;;;;;;;;;;;;;;;;;;1044154;28;3818;-56
2022/09/16 03:48:09;;;;;;;;;;;;;;;;;;1042903;28;4086;-56
2022/09/16 03:48:40;;;;;;;;;;;;;;;;;;1044272;28;3733;-59
2022/09/16 03:49:10;;;;;;;;;;;;;;;;;;1043314;28;4456;-59
2022/09/16 03:49:40;;;;;;;;;;;;;;;;;;1043895;28;3147;-57
2022/09/16 03:50:11;;;;;;;;;;;;;;;;;;1043312;28;4065;-57
2022/09/16 03:50:41;;;;;;;;;;;;;;;;;;1043307;28;3859;-58
2022/09/16 03:51:11;;;;;;;;;;;;;;;;;;1042602;28;4319;-56
2022/09/16 03:51:41;;;;;;;;;;;;;;;;;;1043890;28;3129;-57
2022/09/16 03:52:12;;;;;;;;;;;;;;;;;;1043451;28;3873;-55
2022/09/16 03:52:42;;;;;;;;;;;;;;;;;;1043103;28;3297;-57
2022/09/16 03:53:12;;;;;;;;;;;;;;;;;;1043638;28;3972;-57
2022/09/16 03:53:43;;;;;;;;;;;;;;;;;;1043676;28;3881;-57
2022/09/16 03:54:13;;;;;;;;;;;;;;;;;;1044538;28;4101;-58
2022/09/16 03:54:43;;;;;;;;;;;;;;;;;;1045036;28;3036;-56
2022/09/16 03:55:15;;;;;;;;;;;;;;;;;;1042434;28;4268;-59
2022/09/16 03:55:47;;;;;;;;;;;;;;;;;;1044640;28;3739;-58
2022/09/16 03:56:17;;;;;;;;;;;;;;;;;;1046240;28;4007;-55
2022/09/16 03:56:48;;;;;;;;;;;;;;;;;;1049406;28;3051;-58
2022/09/16 03:57:18;;;;;;;;;;;;;;;;;;1049040;28;4040;-55
2022/09/16 03:57:48;;;;;;;;;;;;;;;;;;1049382;28;3245;-59
2022/09/16 03:58:18;;;;;;;;;;;;;;;;;;1042830;28;3903;-57
2022/09/16 03:58:49;;;;;;;;;;;;;;;;;;1043570;28;3419;-59
2022/09/16 03:59:19;;;;;;;;;;;;;;;;;;1043410;28;4049;-55
2022/09/16 03:59:49;;;;;;;;;;;;;;;;;;1042980;28;3627;-57
2022/09/16 04:00:20;;;;;;;;;;;;;;;;;;1043410;28;3890;-59
2022/09/16 04:00:51;;;;;;;;;;;;;;;;;;1044357;28;3902;-57
2022/09/16 04:01:21;;;;;;;;;;;;;;;;;;1043816;28;3947;-58